KLOL/LOL METAR and TAF weather

Enter ICAO airport designator
Station Type Date Time Source
KLOL METAR 2019/08/24 08:53 UTC NOAA

KLOL 240853Z AUTO 07008KT 10SM CLR 16/04 A2997 RMK AO2 SLP107 T01610039 51004


Station Type Date Time Source
KLOL Decoded METAR 2019/08/24 08:53 UTC NOAA

Station name not available
Aug 24, 2019 - 04:53 AM EDT / 2019.08.24 0853 UTC
Wind: from the ENE (070 degrees) at 9 MPH (8 KT):0
Visibility: 10 mile(s):0
Sky conditions: clear
Temperature: 61.0 F (16.1 C)
Dew Point: 39.0 F (3.9 C)
Relative Humidity: 44%
Pressure (altimeter): 29.97 in. Hg (1014 hPa)
Pressure tendency: 0.01 inches (0.4 hPa) higher than three hours ago
ob: KLOL 240853Z AUTO 07008KT 10SM CLR 16/04 A2997 RMK AO2 SLP107 T01610039 51004
cycle: 9

Station Type Date Time Source
KLOL TAF 2010/01/05 05:22 UTC NOAA

TAF KLOL 050522Z 0506/0606 00000KT 1/4SM FZFG VV001
FM052000 VRB03KT 3SM BR OVC002
AMD NOT SKED

Example: see airport list